sensor_id;sensor_type;location;lat;lon;timestamp;pressure;altitude;pressure_sealevel;temperature;humidity
30338;BME280;17143;51.888;5.408;2023-02-22T00:11:48;101390.28;;;7.78;100.00
30338;BME280;17143;51.888;5.408;2023-02-22T00:26:50;101393.00;;;7.68;100.00
30338;BME280;17143;51.888;5.408;2023-02-22T00:41:53;101377.03;;;7.62;100.00
30338;BME280;17143;51.888;5.408;2023-02-22T00:56:55;101366.63;;;7.51;100.00
30338;BME280;17143;51.888;5.408;2023-02-22T01:11:57;101366.63;;;7.51;100.00
30338;BME280;17143;51.888;5.408;2023-02-22T01:26:59;101356.81;;;7.35;100.00
30338;BME280;17143;51.888;5.408;2023-02-22T01:42:01;101338.22;;;7.29;100.00
30338;BME280;17143;51.888;5.408;2023-02-22T01:57:07;101333.94;;;7.29;100.00
30338;BME280;17143;51.888;5.408;2023-02-22T02:12:14;101315.78;;;7.18;100.00
30338;BME280;17143;51.888;5.408;2023-02-22T02:27:19;101299.00;;;7.13;100.00
30338;BME280;17143;51.888;5.408;2023-02-22T02:42:28;101281.66;;;7.00;100.00
30338;BME280;17143;51.888;5.408;2023-02-22T02:57:33;101270.84;;;7.06;100.00
30338;BME280;17143;51.888;5.408;2023-02-22T03:12:44;101259.56;;;6.94;100.00
30338;BME280;17143;51.888;5.408;2023-02-22T03:27:51;101242.00;;;6.90;100.00
30338;BME280;17143;51.888;5.408;2023-02-22T03:42:59;101235.81;;;6.88;100.00
30338;BME280;17143;51.888;5.408;2023-02-22T03:58:05;101213.63;;;6.80;100.00
30338;BME280;17143;51.888;5.408;2023-02-22T04:13:10;101206.16;;;6.72;100.00
30338;BME280;17143;51.888;5.408;2023-02-22T04:28:14;101186.81;;;6.67;100.00
30338;BME280;17143;51.888;5.408;2023-02-22T04:43:28;101165.63;;;6.50;100.00
30338;BME280;17143;51.888;5.408;2023-02-22T04:58:39;101146.50;;;6.36;100.00
30338;BME280;17143;51.888;5.408;2023-02-22T05:13:41;101147.59;;;6.28;100.00
30338;BME280;17143;51.888;5.408;2023-02-22T05:28:43;101145.09;;;6.18;100.00
30338;BME280;17143;51.888;5.408;2023-02-22T05:43:45;101129.81;;;6.21;100.00
30338;BME280;17143;51.888;5.408;2023-02-22T05:58:47;101123.94;;;6.12;100.00
30338;BME280;17143;51.888;5.408;2023-02-22T06:13:50;101117.09;;;6.12;100.00
30338;BME280;17143;51.888;5.408;2023-02-22T06:28:52;101084.81;;;6.07;100.00
30338;BME280;17143;51.888;5.408;2023-02-22T06:43:54;101075.13;;;6.05;100.00
30338;BME280;17143;51.888;5.408;2023-02-22T06:58:56;101081.09;;;6.04;100.00
30338;BME280;17143;51.888;5.408;2023-02-22T07:13:58;101066.72;;;6.07;100.00
30338;BME280;17143;51.888;5.408;2023-02-22T07:29:00;101080.34;;;6.28;100.00
30338;BME280;17143;51.888;5.408;2023-02-22T07:44:03;101096.78;;;6.40;100.00
30338;BME280;17143;51.888;5.408;2023-02-22T07:59:05;101091.97;;;6.56;100.00
30338;BME280;17143;51.888;5.408;2023-02-22T08:14:07;101096.66;;;6.73;100.00
30338;BME280;17143;51.888;5.408;2023-02-22T08:29:09;101106.13;;;6.85;100.00
30338;BME280;17143;51.888;5.408;2023-02-22T08:44:11;101094.25;;;7.00;100.00
30338;BME280;17143;51.888;5.408;2023-02-22T08:59:13;101064.25;;;7.26;100.00
30338;BME280;17143;51.888;5.408;2023-02-22T09:14:15;101051.66;;;7.44;100.00
30338;BME280;17143;51.888;5.408;2023-02-22T09:29:17;101058.31;;;7.90;100.00
30338;BME280;17143;51.888;5.408;2023-02-22T09:44:24;101039.00;;;8.24;100.00
30338;BME280;17143;51.888;5.408;2023-02-22T09:59:30;101010.66;;;9.21;100.00
30338;BME280;17143;51.888;5.408;2023-02-22T10:14:51;101002.94;;;9.22;100.00
30338;BME280;17143;51.888;5.408;2023-02-22T10:30:04;101004.97;;;10.12;100.00
30338;BME280;17143;51.888;5.408;2023-02-22T10:45:20;101001.97;;;10.06;100.00
30338;BME280;17143;51.888;5.408;2023-02-22T11:00:28;101006.50;;;10.23;100.00
30338;BME280;17143;51.888;5.408;2023-02-22T11:15:31;101003.78;;;10.36;100.00
30338;BME280;17143;51.888;5.408;2023-02-22T11:30:33;100983.13;;;10.39;100.00
30338;BME280;17143;51.888;5.408;2023-02-22T11:45:36;100960.06;;;10.46;100.00
30338;BME280;17143;51.888;5.408;2023-02-22T12:00:48;100950.97;;;10.39;100.00
30338;BME280;17143;51.888;5.408;2023-02-22T12:15:56;100930.66;;;10.17;100.00
30338;BME280;17143;51.888;5.408;2023-02-22T12:31:06;100930.41;;;10.44;100.00
30338;BME280;17143;51.888;5.408;2023-02-22T12:46:15;100915.81;;;10.78;100.00
30338;BME280;17143;51.888;5.408;2023-02-22T13:01:22;100905.53;;;10.81;100.00
30338;BME280;17143;51.888;5.408;2023-02-22T13:16:33;100937.50;;;10.93;100.00
30338;BME280;17143;51.888;5.408;2023-02-22T14:02:57;100920.69;;;11.04;100.00
30338;BME280;17143;51.888;5.408;2023-02-22T14:18:00;100935.88;;;10.95;100.00
30338;BME280;17143;51.888;5.408;2023-02-22T14:33:03;100943.00;;;10.99;100.00
30338;BME280;17143;51.888;5.408;2023-02-22T14:48:29;100951.97;;;11.04;100.00
30338;BME280;17143;51.888;5.408;2023-02-22T15:03:33;100946.13;;;10.92;100.00
30338;BME280;17143;51.888;5.408;2023-02-22T15:18:38;100943.09;;;10.84;100.00
30338;BME280;17143;51.888;5.408;2023-02-22T15:33:41;100948.69;;;10.76;100.00
30338;BME280;17143;51.888;5.408;2023-02-22T15:48:43;100956.09;;;10.68;100.00
30338;BME280;17143;51.888;5.408;2023-02-22T16:04:04;100957.22;;;10.57;100.00
30338;BME280;17143;51.888;5.408;2023-02-22T16:19:34;100979.69;;;10.40;100.00
30338;BME280;17143;51.888;5.408;2023-02-22T16:34:37;100977.22;;;10.27;100.00
30338;BME280;17143;51.888;5.408;2023-02-22T16:49:39;100988.03;;;10.19;100.00
30338;BME280;17143;51.888;5.408;2023-02-22T17:04:41;100994.56;;;10.12;100.00
30338;BME280;17143;51.888;5.408;2023-02-22T17:19:44;101019.41;;;10.07;100.00
30338;BME280;17143;51.888;5.408;2023-02-22T17:34:46;101018.84;;;9.98;100.00
30338;BME280;17143;51.888;5.408;2023-02-22T17:49:48;101036.53;;;9.89;100.00
30338;BME280;17143;51.888;5.408;2023-02-22T18:04:50;101040.75;;;9.87;100.00
30338;BME280;17143;51.888;5.408;2023-02-22T18:19:52;101038.94;;;9.86;100.00
30338;BME280;17143;51.888;5.408;2023-02-22T18:34:54;101042.34;;;9.85;100.00
30338;BME280;17143;51.888;5.408;2023-02-22T18:49:56;101035.44;;;9.86;100.00
30338;BME280;17143;51.888;5.408;2023-02-22T19:04:58;101042.34;;;9.85;100.00
30338;BME280;17143;51.888;5.408;2023-02-22T19:20:00;101049.16;;;9.83;100.00
30338;BME280;17143;51.888;5.408;2023-02-22T19:35:03;101061.19;;;9.81;100.00
30338;BME280;17143;51.888;5.408;2023-02-22T19:50:05;101067.81;;;9.76;100.00
30338;BME280;17143;51.888;5.408;2023-02-22T20:05:09;101076.03;;;9.69;100.00
30338;BME280;17143;51.888;5.408;2023-02-22T20:20:11;101086.69;;;9.59;100.00
30338;BME280;17143;51.888;5.408;2023-02-22T20:35:14;101088.41;;;9.58;100.00
30338;BME280;17143;51.888;5.408;2023-02-22T20:50:16;101101.13;;;9.54;100.00
30338;BME280;17143;51.888;5.408;2023-02-22T21:05:18;101110.38;;;9.36;100.00
30338;BME280;17143;51.888;5.408;2023-02-22T21:20:20;101110.19;;;9.33;100.00
30338;BME280;17143;51.888;5.408;2023-02-22T21:35:23;101112.22;;;9.24;100.00
30338;BME280;17143;51.888;5.408;2023-02-22T21:50:25;101109.03;;;9.14;100.00
30338;BME280;17143;51.888;5.408;2023-02-22T22:05:27;101108.81;;;9.11;100.00
30338;BME280;17143;51.888;5.408;2023-02-22T22:20:29;101098.22;;;9.08;100.00
30338;BME280;17143;51.888;5.408;2023-02-22T22:35:32;101089.38;;;9.05;100.00
30338;BME280;17143;51.888;5.408;2023-02-22T22:50:34;101098.44;;;9.11;100.00
30338;BME280;17143;51.888;5.408;2023-02-22T23:05:38;101118.91;;;9.20;100.00
30338;BME280;17143;51.888;5.408;2023-02-22T23:20:41;101110.00;;;9.16;100.00
30338;BME280;17143;51.888;5.408;2023-02-22T23:35:47;101104.53;;;9.12;100.00
30338;BME280;17143;51.888;5.408;2023-02-22T23:50:49;101121.53;;;9.07;100.00
